createdAt,value
2022-11-09T00:01:50.104Z,2.70
2022-11-09T00:06:53.494Z,2.50
2022-11-09T00:11:56.286Z,2.00
2022-11-09T00:16:59.407Z,2.88
2022-11-09T00:22:02.195Z,3.67
2022-11-09T00:27:04.894Z,2.70
2022-11-09T00:32:07.721Z,3.03
2022-11-09T00:37:10.507Z,3.15
2022-11-09T00:42:14.345Z,3.67
2022-11-09T00:47:17.011Z,2.53
2022-11-09T00:52:19.713Z,2.90
2022-11-09T00:57:22.521Z,2.45
2022-11-09T01:02:25.420Z,1.85
2022-11-09T01:07:28.095Z,1.98
2022-11-09T01:12:30.832Z,1.75
2022-11-09T01:17:33.728Z,2.13
2022-11-09T01:22:36.529Z,2.42
2022-11-09T01:27:39.391Z,4.32
2022-11-09T01:32:42.111Z,2.22
2022-11-09T01:37:44.898Z,1.52
2022-11-09T01:42:47.592Z,1.65
2022-11-09T01:48:07.599Z,2.08
2022-11-09T01:53:15.380Z,1.85
2022-11-09T01:58:22.574Z,1.90
2022-11-09T02:03:33.738Z,1.98
2022-11-09T02:08:36.424Z,1.55
2022-11-09T02:13:42.113Z,1.90
2022-11-09T02:18:58.587Z,2.10
2022-11-09T02:24:01.809Z,2.40
2022-11-09T02:29:08.280Z,2.10
2022-11-09T02:34:20.208Z,2.20
2022-11-09T02:39:26.275Z,2.20
2022-11-09T02:44:31.046Z,2.03
2022-11-09T02:49:33.894Z,1.67
2022-11-09T02:54:36.743Z,1.95
2022-11-09T02:59:40.540Z,1.20
2022-11-09T03:04:43.278Z,1.55
2022-11-09T03:09:46.860Z,1.33
2022-11-09T03:14:49.598Z,1.00
2022-11-09T03:19:52.858Z,2.97
2022-11-09T03:24:56.257Z,1.73
2022-11-09T03:29:59.988Z,1.40
2022-11-09T03:35:02.871Z,1.90
2022-11-09T03:40:06.561Z,1.92
2022-11-09T03:45:09.980Z,1.70
2022-11-09T03:50:13.952Z,1.63
2022-11-09T03:55:16.718Z,2.40
2022-11-09T04:00:21.583Z,1.95
2022-11-09T04:05:25.759Z,1.67
2022-11-09T04:10:28.502Z,1.88
2022-11-09T04:15:31.192Z,1.70
2022-11-09T04:20:33.978Z,1.50
2022-11-09T04:25:38.195Z,1.48
2022-11-09T04:30:43.479Z,1.50
2022-11-09T04:35:46.243Z,1.52
2022-11-09T04:40:48.938Z,1.67
2022-11-09T04:45:51.635Z,1.65
2022-11-09T04:51:00.060Z,1.83
2022-11-09T04:56:03.772Z,1.50
2022-11-09T05:01:09.095Z,2.75
2022-11-09T05:06:30.253Z,2.08
2022-11-09T05:11:34.039Z,1.48
2022-11-09T05:16:36.818Z,1.58
2022-11-09T05:21:39.820Z,1.63
2022-11-09T05:26:42.845Z,2.13
2022-11-09T05:31:51.990Z,1.92
2022-11-09T05:36:58.184Z,1.92
2022-11-09T05:42:05.089Z,3.05
2022-11-09T05:47:07.811Z,2.13
2022-11-09T05:52:10.505Z,2.75
2022-11-09T05:57:13.152Z,2.13
2022-11-09T06:02:15.941Z,2.25
2022-11-09T06:07:18.698Z,2.60
2022-11-09T06:12:21.458Z,2.63
2022-11-09T06:17:24.144Z,2.75
2022-11-09T06:22:26.792Z,2.80
2022-11-09T06:27:29.499Z,2.20
2022-11-09T06:32:32.235Z,3.13
2022-11-09T06:37:34.994Z,2.88
2022-11-09T06:42:37.719Z,2.38
2022-11-09T06:47:40.383Z,2.95
2022-11-09T06:52:43.132Z,2.95
2022-11-09T06:57:45.808Z,3.15
2022-11-09T07:02:48.529Z,3.58
2022-11-09T07:07:51.357Z,3.65
2022-11-09T07:12:54.092Z,3.90
2022-11-09T07:18:01.406Z,3.17
2022-11-09T07:23:04.146Z,3.10
2022-11-09T07:28:09.307Z,3.33
2022-11-09T07:33:18.635Z,3.55
2022-11-09T07:38:21.288Z,4.43
2022-11-09T07:43:24.012Z,5.22
2022-11-09T07:48:28.179Z,5.03
2022-11-09T07:53:30.974Z,6.90
2022-11-09T07:58:34.694Z,5.97
2022-11-09T08:03:37.513Z,5.07
2022-11-09T08:08:40.121Z,4.88
2022-11-09T08:13:42.911Z,5.20
2022-11-09T08:18:45.674Z,5.00
2022-11-09T08:23:48.496Z,5.22
2022-11-09T08:28:51.381Z,4.55
2022-11-09T08:33:54.279Z,5.45
2022-11-09T08:38:59.521Z,6.20
2022-11-09T08:44:02.216Z,6.47
2022-11-09T08:49:04.780Z,6.25
2022-11-09T08:54:07.487Z,5.40
2022-11-09T08:59:10.237Z,5.40
2022-11-09T09:04:13.020Z,5.20
2022-11-09T09:09:15.816Z,5.63
2022-11-09T09:14:18.594Z,6.25
2022-11-09T09:19:21.630Z,5.18
2022-11-09T09:24:24.381Z,4.22
2022-11-09T09:29:27.126Z,4.28
2022-11-09T09:34:29.787Z,4.43
2022-11-09T09:39:32.476Z,3.90
2022-11-09T09:44:41.447Z,4.45
2022-11-09T09:49:51.082Z,4.43
2022-11-09T09:54:56.579Z,4.53
2022-11-09T10:00:01.907Z,4.90
2022-11-09T10:05:16.383Z,5.60
2022-11-09T10:10:44.747Z,7.22
2022-11-09T10:16:02.731Z,6.78
2022-11-09T10:21:24.134Z,7.32
2022-11-09T10:26:54.200Z,6.88
2022-11-09T10:32:06.187Z,6.68
2022-11-09T10:37:29.326Z,8.68
2022-11-09T10:42:32.061Z,8.50
2022-11-09T10:47:53.300Z,8.23
2022-11-09T10:53:18.926Z,7.97
2022-11-09T10:58:50.116Z,8.52
2022-11-09T11:04:22.874Z,7.43
2022-11-09T11:09:44.675Z,7.10
2022-11-09T11:15:24.058Z,7.38
2022-11-09T11:20:45.455Z,6.30
2022-11-09T11:26:23.940Z,7.20
2022-11-09T11:31:45.285Z,9.18
2022-11-09T11:37:10.433Z,7.35
2022-11-09T11:42:56.580Z,6.38
2022-11-09T11:48:59.284Z,7.53
2022-11-09T11:54:41.292Z,7.13
2022-11-09T12:00:15.418Z,6.70
2022-11-09T12:05:36.315Z,6.72
2022-11-09T12:11:12.956Z,8.02
2022-11-09T12:17:00.250Z,7.40
2022-11-09T12:23:02.607Z,5.95
2022-11-09T12:28:48.761Z,7.63
2022-11-09T12:34:15.770Z,7.00
2022-11-09T12:39:47.325Z,6.20
2022-11-09T12:45:35.046Z,6.97
2022-11-09T12:50:56.562Z,7.10
2022-11-09T12:56:18.916Z,8.45
2022-11-09T13:01:40.213Z,7.57
2022-11-09T13:07:04.005Z,7.38
2022-11-09T13:12:38.315Z,6.75
2022-11-09T13:18:05.489Z,7.68
2022-11-09T13:23:59.211Z,8.85
2022-11-09T13:29:41.971Z,8.45
2022-11-09T13:35:04.913Z,7.68
2022-11-09T13:40:32.221Z,6.85
2022-11-09T13:46:05.390Z,7.20
2022-11-09T13:51:46.587Z,6.47
2022-11-09T13:57:07.766Z,6.30
2022-11-09T14:02:36.679Z,6.28
2022-11-09T14:08:02.202Z,7.10
2022-11-09T14:13:23.320Z,6.45
2022-11-09T14:18:55.074Z,6.32
2022-11-09T14:24:22.386Z,6.30
2022-11-09T14:29:58.092Z,7.65
2022-11-09T14:35:26.933Z,7.28
2022-11-09T14:40:49.320Z,8.35
2022-11-09T14:46:19.744Z,7.22
2022-11-09T14:51:41.153Z,7.15
2022-11-09T14:57:02.266Z,6.68
2022-11-09T15:02:24.303Z,7.70
2022-11-09T15:07:47.460Z,7.85
2022-11-09T15:13:08.792Z,7.20
2022-11-09T15:18:34.568Z,8.65
2022-11-09T15:24:11.309Z,7.43
2022-11-09T15:29:32.372Z,7.43
2022-11-09T15:34:56.346Z,7.68
2022-11-09T15:40:23.257Z,7.63
2022-11-09T15:45:44.622Z,7.70
2022-11-09T15:51:05.807Z,7.53
2022-11-09T15:56:26.856Z,7.10
2022-11-09T16:01:48.268Z,6.40
2022-11-09T16:07:11.801Z,6.65
2022-11-09T16:12:33.273Z,6.85
2022-11-09T16:17:54.616Z,6.88
2022-11-09T16:23:15.871Z,6.47
2022-11-09T16:28:43.659Z,6.00
2022-11-09T16:34:04.860Z,7.85
2022-11-09T16:39:26.414Z,6.30
2022-11-09T16:44:48.740Z,6.10
2022-11-09T16:50:10.324Z,6.20
2022-11-09T16:55:31.572Z,6.97
2022-11-09T17:01:11.335Z,5.25
2022-11-09T17:06:34.441Z,5.55
2022-11-09T17:11:56.004Z,6.45
2022-11-09T17:17:22.480Z,6.28
2022-11-09T17:22:46.276Z,5.40
2022-11-09T17:28:07.774Z,5.35
2022-11-09T17:33:28.988Z,6.30
2022-11-09T17:38:50.312Z,5.70
2022-11-09T17:44:11.674Z,6.10
2022-11-09T17:49:32.985Z,6.68
2022-11-09T17:54:54.124Z,6.35
2022-11-09T18:00:15.667Z,5.68
2022-11-09T18:05:41.175Z,7.55
2022-11-09T18:11:02.513Z,6.00
2022-11-09T18:16:23.868Z,6.65
2022-11-09T18:21:47.832Z,7.13
2022-11-09T18:27:08.829Z,7.20
2022-11-09T18:32:30.623Z,5.15
2022-11-09T18:37:51.617Z,7.18
2022-11-09T18:43:12.809Z,6.95
2022-11-09T18:48:34.455Z,6.45
2022-11-09T18:53:55.668Z,5.82
2022-11-09T18:59:17.275Z,5.97
2022-11-09T19:04:38.698Z,6.63
2022-11-09T19:09:59.803Z,5.55
2022-11-09T19:15:20.811Z,5.95
2022-11-09T19:20:41.981Z,5.55
2022-11-09T19:26:03.407Z,6.50
2022-11-09T19:31:25.158Z,6.30
2022-11-09T19:36:46.534Z,6.80
2022-11-09T19:42:07.622Z,5.97
2022-11-09T19:47:28.699Z,5.30
2022-11-09T19:52:49.861Z,6.35
2022-11-09T19:58:11.695Z,5.53
2022-11-09T20:03:32.832Z,6.38
2022-11-09T20:08:54.231Z,7.25
2022-11-09T20:14:15.683Z,7.07
2022-11-09T20:19:37.234Z,6.00
2022-11-09T20:24:58.277Z,5.63
2022-11-09T20:30:20.041Z,6.63
2022-11-09T20:35:46.600Z,7.18
2022-11-09T20:41:11.049Z,7.00
2022-11-09T20:46:36.233Z,6.45
2022-11-09T20:51:59.414Z,6.50
2022-11-09T20:57:20.499Z,7.65
2022-11-09T21:02:43.524Z,6.93
2022-11-09T21:08:04.706Z,6.80
2022-11-09T21:13:26.044Z,6.70
2022-11-09T21:18:47.285Z,7.10
2022-11-09T21:24:28.376Z,7.53
2022-11-09T21:29:52.370Z,7.80
2022-11-09T21:35:13.490Z,8.17
2022-11-09T21:40:34.516Z,7.20
2022-11-09T21:45:56.388Z,7.70
2022-11-09T21:51:17.618Z,6.47
2022-11-09T21:56:38.816Z,5.97
2022-11-09T22:01:59.709Z,5.95
2022-11-09T22:07:20.939Z,5.85
2022-11-09T22:13:00.548Z,7.28
2022-11-09T22:18:40.345Z,7.15
2022-11-09T22:24:02.148Z,6.38
2022-11-09T22:29:23.135Z,5.80
2022-11-09T22:34:45.131Z,6.78
2022-11-09T22:40:06.897Z,7.22
2022-11-09T22:45:27.830Z,6.75
2022-11-09T22:50:49.275Z,8.10
2022-11-09T22:56:11.734Z,7.32
2022-11-09T23:01:32.978Z,8.82
2022-11-09T23:06:54.460Z,8.20
2022-11-09T23:12:16.037Z,8.82
2022-11-09T23:17:55.381Z,8.75
2022-11-09T23:23:16.571Z,10.57
2022-11-09T23:28:37.908Z,9.80
2022-11-09T23:33:59.141Z,10.48
2022-11-09T23:39:20.313Z,11.10
2022-11-09T23:44:41.667Z,13.85
2022-11-09T23:50:02.590Z,10.95
2022-11-09T23:55:23.623Z,10.30
